sensor_id;sensor_type;location;lat;lon;timestamp;P1;durP1;ratioP1;P2;durP2;ratioP2
7931;SDS011;4011;49.424;10.894;2023-09-19T00:01:21;3.35;;;2.10;;
7931;SDS011;4011;49.424;10.894;2023-09-19T00:06:44;3.10;;;1.80;;
7931;SDS011;4011;49.424;10.894;2023-09-19T00:12:06;2.90;;;1.70;;
7931;SDS011;4011;49.424;10.894;2023-09-19T00:17:31;3.90;;;1.73;;
7931;SDS011;4011;49.424;10.894;2023-09-19T00:22:52;3.78;;;2.20;;
7931;SDS011;4011;49.424;10.894;2023-09-19T00:28:14;2.50;;;1.67;;
7931;SDS011;4011;49.424;10.894;2023-09-19T00:33:38;2.90;;;1.90;;
7931;SDS011;4011;49.424;10.894;2023-09-19T00:38:59;2.50;;;1.60;;
7931;SDS011;4011;49.424;10.894;2023-09-19T00:44:21;2.72;;;2.20;;
7931;SDS011;4011;49.424;10.894;2023-09-19T00:49:44;2.60;;;1.70;;
7931;SDS011;4011;49.424;10.894;2023-09-19T00:55:09;3.08;;;1.70;;
7931;SDS011;4011;49.424;10.894;2023-09-19T01:00:31;3.72;;;2.00;;
7931;SDS011;4011;49.424;10.894;2023-09-19T01:05:55;3.10;;;2.00;;
7931;SDS011;4011;49.424;10.894;2023-09-19T01:11:21;2.40;;;1.42;;
7931;SDS011;4011;49.424;10.894;2023-09-19T01:16:48;2.60;;;1.60;;
7931;SDS011;4011;49.424;10.894;2023-09-19T01:22:13;3.15;;;1.90;;
7931;SDS011;4011;49.424;10.894;2023-09-19T01:27:52;2.60;;;1.92;;
7931;SDS011;4011;49.424;10.894;2023-09-19T01:33:17;3.13;;;1.45;;
7931;SDS011;4011;49.424;10.894;2023-09-19T01:38:39;3.63;;;1.98;;
7931;SDS011;4011;49.424;10.894;2023-09-19T01:44:01;3.33;;;1.90;;
7931;SDS011;4011;49.424;10.894;2023-09-19T01:49:27;2.45;;;1.58;;
7931;SDS011;4011;49.424;10.894;2023-09-19T01:54:55;3.03;;;1.73;;
7931;SDS011;4011;49.424;10.894;2023-09-19T02:00:18;2.63;;;1.85;;
7931;SDS011;4011;49.424;10.894;2023-09-19T02:05:43;2.80;;;1.83;;
7931;SDS011;4011;49.424;10.894;2023-09-19T02:11:09;2.92;;;1.50;;
7931;SDS011;4011;49.424;10.894;2023-09-19T02:16:31;2.60;;;1.65;;
7931;SDS011;4011;49.424;10.894;2023-09-19T02:21:54;3.22;;;1.92;;
7931;SDS011;4011;49.424;10.894;2023-09-19T02:27:15;3.10;;;1.83;;
7931;SDS011;4011;49.424;10.894;2023-09-19T02:32:37;2.53;;;1.60;;
7931;SDS011;4011;49.424;10.894;2023-09-19T02:38:00;3.47;;;1.67;;
7931;SDS011;4011;49.424;10.894;2023-09-19T02:43:22;2.53;;;1.90;;
7931;SDS011;4011;49.424;10.894;2023-09-19T02:48:43;2.60;;;1.98;;
7931;SDS011;4011;49.424;10.894;2023-09-19T02:54:07;3.58;;;1.50;;
7931;SDS011;4011;49.424;10.894;2023-09-19T02:59:31;2.80;;;1.60;;
7931;SDS011;4011;49.424;10.894;2023-09-19T03:04:52;3.25;;;1.60;;
7931;SDS011;4011;49.424;10.894;2023-09-19T03:10:15;2.50;;;2.03;;
7931;SDS011;4011;49.424;10.894;2023-09-19T03:15:40;2.90;;;1.50;;
7931;SDS011;4011;49.424;10.894;2023-09-19T03:21:03;2.67;;;1.50;;
7931;SDS011;4011;49.424;10.894;2023-09-19T03:26:28;3.15;;;1.67;;
7931;SDS011;4011;49.424;10.894;2023-09-19T03:31:49;2.50;;;1.83;;
7931;SDS011;4011;49.424;10.894;2023-09-19T03:37:11;2.90;;;1.48;;
7931;SDS011;4011;49.424;10.894;2023-09-19T03:42:34;2.45;;;1.60;;
7931;SDS011;4011;49.424;10.894;2023-09-19T03:47:56;2.50;;;1.52;;
7931;SDS011;4011;49.424;10.894;2023-09-19T03:53:17;3.55;;;1.90;;
7931;SDS011;4011;49.424;10.894;2023-09-19T03:58:40;2.75;;;1.50;;
7931;SDS011;4011;49.424;10.894;2023-09-19T04:04:01;2.83;;;1.70;;
7931;SDS011;4011;49.424;10.894;2023-09-19T04:09:28;2.67;;;1.60;;
7931;SDS011;4011;49.424;10.894;2023-09-19T04:14:51;2.47;;;1.83;;
7931;SDS011;4011;49.424;10.894;2023-09-19T04:20:12;2.47;;;1.67;;
7931;SDS011;4011;49.424;10.894;2023-09-19T04:25:33;2.80;;;1.60;;
7931;SDS011;4011;49.424;10.894;2023-09-19T04:30:57;2.25;;;1.60;;
7931;SDS011;4011;49.424;10.894;2023-09-19T04:36:21;2.85;;;2.15;;
7931;SDS011;4011;49.424;10.894;2023-09-19T04:41:43;3.40;;;2.03;;
7931;SDS011;4011;49.424;10.894;2023-09-19T04:47:06;5.25;;;1.80;;
7931;SDS011;4011;49.424;10.894;2023-09-19T04:52:30;3.17;;;1.67;;
7931;SDS011;4011;49.424;10.894;2023-09-19T04:57:51;4.03;;;1.90;;
7931;SDS011;4011;49.424;10.894;2023-09-19T05:03:15;5.85;;;2.10;;
7931;SDS011;4011;49.424;10.894;2023-09-19T05:08:37;3.15;;;1.85;;
7931;SDS011;4011;49.424;10.894;2023-09-19T05:13:58;3.88;;;1.77;;
7931;SDS011;4011;49.424;10.894;2023-09-19T05:19:25;3.55;;;1.95;;
7931;SDS011;4011;49.424;10.894;2023-09-19T05:24:47;5.22;;;2.63;;
7931;SDS011;4011;49.424;10.894;2023-09-19T05:30:10;3.00;;;2.00;;
7931;SDS011;4011;49.424;10.894;2023-09-19T05:35:36;3.80;;;2.03;;
7931;SDS011;4011;49.424;10.894;2023-09-19T05:41:00;3.80;;;2.25;;
7931;SDS011;4011;49.424;10.894;2023-09-19T05:46:22;3.28;;;2.20;;
7931;SDS011;4011;49.424;10.894;2023-09-19T05:51:45;3.85;;;1.83;;
7931;SDS011;4011;49.424;10.894;2023-09-19T05:57:07;5.03;;;1.95;;
7931;SDS011;4011;49.424;10.894;2023-09-19T06:02:32;3.33;;;2.00;;
7931;SDS011;4011;49.424;10.894;2023-09-19T06:07:55;3.38;;;2.13;;
7931;SDS011;4011;49.424;10.894;2023-09-19T06:13:20;2.53;;;1.60;;
7931;SDS011;4011;49.424;10.894;2023-09-19T06:18:41;3.08;;;1.60;;
7931;SDS011;4011;49.424;10.894;2023-09-19T06:24:04;2.90;;;1.77;;
7931;SDS011;4011;49.424;10.894;2023-09-19T06:29:26;2.55;;;1.95;;
7931;SDS011;4011;49.424;10.894;2023-09-19T06:34:51;3.78;;;1.80;;
7931;SDS011;4011;49.424;10.894;2023-09-19T06:40:15;2.83;;;1.80;;
7931;SDS011;4011;49.424;10.894;2023-09-19T06:45:37;3.67;;;2.13;;
7931;SDS011;4011;49.424;10.894;2023-09-19T06:50:58;3.47;;;2.05;;
7931;SDS011;4011;49.424;10.894;2023-09-19T06:56:26;3.15;;;1.75;;
7931;SDS011;4011;49.424;10.894;2023-09-19T07:01:47;3.10;;;1.83;;
7931;SDS011;4011;49.424;10.894;2023-09-19T07:07:09;4.65;;;2.08;;
7931;SDS011;4011;49.424;10.894;2023-09-19T07:12:35;5.20;;;2.10;;
7931;SDS011;4011;49.424;10.894;2023-09-19T07:17:56;4.00;;;2.10;;
7931;SDS011;4011;49.424;10.894;2023-09-19T07:23:18;3.72;;;1.80;;
7931;SDS011;4011;49.424;10.894;2023-09-19T07:28:42;2.67;;;1.75;;
7931;SDS011;4011;49.424;10.894;2023-09-19T07:34:04;3.47;;;2.35;;
7931;SDS011;4011;49.424;10.894;2023-09-19T07:39:27;3.92;;;1.90;;
7931;SDS011;4011;49.424;10.894;2023-09-19T07:44:49;3.38;;;1.80;;
7931;SDS011;4011;49.424;10.894;2023-09-19T07:50:11;3.67;;;2.13;;
7931;SDS011;4011;49.424;10.894;2023-09-19T07:55:32;3.35;;;2.30;;
7931;SDS011;4011;49.424;10.894;2023-09-19T08:00:55;3.55;;;2.45;;
7931;SDS011;4011;49.424;10.894;2023-09-19T08:06:16;3.72;;;1.90;;
7931;SDS011;4011;49.424;10.894;2023-09-19T08:11:39;4.43;;;2.05;;
7931;SDS011;4011;49.424;10.894;2023-09-19T08:17:02;3.28;;;2.28;;
7931;SDS011;4011;49.424;10.894;2023-09-19T08:22:25;3.92;;;2.10;;
7931;SDS011;4011;49.424;10.894;2023-09-19T08:27:47;3.58;;;2.10;;
7931;SDS011;4011;49.424;10.894;2023-09-19T08:33:10;3.05;;;1.88;;
7931;SDS011;4011;49.424;10.894;2023-09-19T08:38:35;2.72;;;1.98;;
7931;SDS011;4011;49.424;10.894;2023-09-19T08:43:58;3.30;;;2.10;;
7931;SDS011;4011;49.424;10.894;2023-09-19T08:49:24;4.43;;;1.90;;
7931;SDS011;4011;49.424;10.894;2023-09-19T08:54:49;3.72;;;2.03;;
7931;SDS011;4011;49.424;10.894;2023-09-19T09:00:13;3.80;;;2.50;;
7931;SDS011;4011;49.424;10.894;2023-09-19T09:05:38;7.10;;;2.38;;
7931;SDS011;4011;49.424;10.894;2023-09-19T09:11:03;2.92;;;1.77;;
7931;SDS011;4011;49.424;10.894;2023-09-19T09:16:28;3.13;;;1.73;;
7931;SDS011;4011;49.424;10.894;2023-09-19T09:21:52;3.33;;;2.30;;
7931;SDS011;4011;49.424;10.894;2023-09-19T09:27:14;3.90;;;1.95;;
7931;SDS011;4011;49.424;10.894;2023-09-19T09:32:35;3.22;;;1.80;;
7931;SDS011;4011;49.424;10.894;2023-09-19T09:38:00;3.03;;;1.88;;
7931;SDS011;4011;49.424;10.894;2023-09-19T09:43:29;3.03;;;2.38;;
7931;SDS011;4011;49.424;10.894;2023-09-19T09:48:55;2.80;;;1.70;;
7931;SDS011;4011;49.424;10.894;2023-09-19T09:54:36;4.47;;;2.08;;
7931;SDS011;4011;49.424;10.894;2023-09-19T09:59:58;3.70;;;2.03;;
7931;SDS011;4011;49.424;10.894;2023-09-19T10:05:36;3.78;;;2.05;;
7931;SDS011;4011;49.424;10.894;2023-09-19T10:11:16;3.40;;;2.33;;
7931;SDS011;4011;49.424;10.894;2023-09-19T10:16:40;3.10;;;1.73;;
7931;SDS011;4011;49.424;10.894;2023-09-19T10:22:02;2.97;;;1.80;;
7931;SDS011;4011;49.424;10.894;2023-09-19T10:27:26;3.70;;;2.00;;
7931;SDS011;4011;49.424;10.894;2023-09-19T10:32:49;3.08;;;2.38;;
7931;SDS011;4011;49.424;10.894;2023-09-19T10:38:17;4.18;;;1.88;;
7931;SDS011;4011;49.424;10.894;2023-09-19T10:43:40;3.72;;;2.10;;
7931;SDS011;4011;49.424;10.894;2023-09-19T10:54:26;3.78;;;2.13;;
7931;SDS011;4011;49.424;10.894;2023-09-19T11:00:04;3.10;;;1.90;;
7931;SDS011;4011;49.424;10.894;2023-09-19T11:05:42;3.88;;;2.10;;
7931;SDS011;4011;49.424;10.894;2023-09-19T11:11:04;4.18;;;2.10;;
7931;SDS011;4011;49.424;10.894;2023-09-19T11:22:26;4.78;;;1.70;;
7931;SDS011;4011;49.424;10.894;2023-09-19T11:28:31;4.07;;;2.53;;
7931;SDS011;4011;49.424;10.894;2023-09-19T11:34:02;4.85;;;1.70;;
7931;SDS011;4011;49.424;10.894;2023-09-19T11:39:50;3.45;;;1.70;;
7931;SDS011;4011;49.424;10.894;2023-09-19T11:51:17;3.60;;;2.05;;
7931;SDS011;4011;49.424;10.894;2023-09-19T11:56:49;4.05;;;2.40;;
7931;SDS011;4011;49.424;10.894;2023-09-19T12:02:12;4.43;;;2.35;;
7931;SDS011;4011;49.424;10.894;2023-09-19T12:07:43;3.40;;;2.00;;
7931;SDS011;4011;49.424;10.894;2023-09-19T12:13:07;4.13;;;2.05;;
7931;SDS011;4011;49.424;10.894;2023-09-19T12:18:30;3.83;;;2.13;;
7931;SDS011;4011;49.424;10.894;2023-09-19T12:24:03;2.97;;;1.70;;
7931;SDS011;4011;49.424;10.894;2023-09-19T12:29:27;3.35;;;2.10;;
7931;SDS011;4011;49.424;10.894;2023-09-19T12:34:50;3.47;;;2.58;;
7931;SDS011;4011;49.424;10.894;2023-09-19T12:40:12;4.15;;;1.92;;
7931;SDS011;4011;49.424;10.894;2023-09-19T12:45:39;3.05;;;1.88;;
7931;SDS011;4011;49.424;10.894;2023-09-19T12:51:02;3.20;;;2.00;;
7931;SDS011;4011;49.424;10.894;2023-09-19T12:56:25;3.67;;;2.30;;
7931;SDS011;4011;49.424;10.894;2023-09-19T13:01:48;3.45;;;1.92;;
7931;SDS011;4011;49.424;10.894;2023-09-19T13:07:40;3.42;;;1.80;;
7931;SDS011;4011;49.424;10.894;2023-09-19T13:18:45;4.90;;;1.90;;
7931;SDS011;4011;49.424;10.894;2023-09-19T13:24:20;4.10;;;2.20;;
7931;SDS011;4011;49.424;10.894;2023-09-19T13:29:47;3.88;;;2.10;;
7931;SDS011;4011;49.424;10.894;2023-09-19T13:35:13;3.47;;;1.85;;
7931;SDS011;4011;49.424;10.894;2023-09-19T13:40:34;4.55;;;2.60;;
7931;SDS011;4011;49.424;10.894;2023-09-19T13:45:57;3.63;;;1.85;;
7931;SDS011;4011;49.424;10.894;2023-09-19T13:51:20;3.83;;;2.15;;
7931;SDS011;4011;49.424;10.894;2023-09-19T13:56:43;4.35;;;1.80;;
7931;SDS011;4011;49.424;10.894;2023-09-19T14:02:04;4.72;;;2.20;;
7931;SDS011;4011;49.424;10.894;2023-09-19T14:07:28;3.25;;;2.00;;
7931;SDS011;4011;49.424;10.894;2023-09-19T14:12:50;6.20;;;2.03;;
7931;SDS011;4011;49.424;10.894;2023-09-19T14:18:12;4.07;;;2.00;;
7931;SDS011;4011;49.424;10.894;2023-09-19T14:23:38;3.80;;;2.05;;
7931;SDS011;4011;49.424;10.894;2023-09-19T14:29:00;5.28;;;2.20;;
7931;SDS011;4011;49.424;10.894;2023-09-19T14:34:21;3.55;;;1.80;;
7931;SDS011;4011;49.424;10.894;2023-09-19T14:39:44;2.95;;;1.63;;
7931;SDS011;4011;49.424;10.894;2023-09-19T14:45:06;3.70;;;2.10;;
7931;SDS011;4011;49.424;10.894;2023-09-19T14:50:27;2.80;;;2.13;;
7931;SDS011;4011;49.424;10.894;2023-09-19T14:55:51;3.55;;;2.08;;
7931;SDS011;4011;49.424;10.894;2023-09-19T15:06:36;2.80;;;1.83;;
7931;SDS011;4011;49.424;10.894;2023-09-19T15:11:59;3.17;;;2.40;;
7931;SDS011;4011;49.424;10.894;2023-09-19T15:17:21;3.97;;;2.00;;
7931;SDS011;4011;49.424;10.894;2023-09-19T15:22:45;3.20;;;1.80;;
7931;SDS011;4011;49.424;10.894;2023-09-19T15:28:10;2.60;;;1.70;;
7931;SDS011;4011;49.424;10.894;2023-09-19T15:33:31;4.97;;;2.60;;
7931;SDS011;4011;49.424;10.894;2023-09-19T15:38:57;4.28;;;2.40;;
7931;SDS011;4011;49.424;10.894;2023-09-19T15:44:20;24.17;;;8.07;;
7931;SDS011;4011;49.424;10.894;2023-09-19T15:49:44;22.55;;;7.32;;
7931;SDS011;4011;49.424;10.894;2023-09-19T15:55:06;16.27;;;6.30;;
7931;SDS011;4011;49.424;10.894;2023-09-19T16:00:29;20.08;;;6.72;;
7931;SDS011;4011;49.424;10.894;2023-09-19T16:05:50;11.75;;;4.85;;
7931;SDS011;4011;49.424;10.894;2023-09-19T16:11:12;8.98;;;3.70;;
7931;SDS011;4011;49.424;10.894;2023-09-19T16:16:35;8.18;;;3.58;;
7931;SDS011;4011;49.424;10.894;2023-09-19T16:21:56;5.75;;;2.83;;
7931;SDS011;4011;49.424;10.894;2023-09-19T16:27:19;5.65;;;2.47;;
7931;SDS011;4011;49.424;10.894;2023-09-19T16:32:42;5.75;;;2.50;;
7931;SDS011;4011;49.424;10.894;2023-09-19T16:38:04;4.85;;;2.20;;
7931;SDS011;4011;49.424;10.894;2023-09-19T16:43:26;3.72;;;2.30;;
7931;SDS011;4011;49.424;10.894;2023-09-19T16:48:48;3.78;;;2.03;;
7931;SDS011;4011;49.424;10.894;2023-09-19T16:54:11;4.30;;;2.08;;
7931;SDS011;4011;49.424;10.894;2023-09-19T16:59:32;2.90;;;2.00;;
7931;SDS011;4011;49.424;10.894;2023-09-19T17:04:56;4.45;;;2.38;;
7931;SDS011;4011;49.424;10.894;2023-09-19T17:10:17;3.28;;;1.90;;
7931;SDS011;4011;49.424;10.894;2023-09-19T17:15:39;3.20;;;1.73;;
7931;SDS011;4011;49.424;10.894;2023-09-19T17:21:02;4.13;;;2.00;;
7931;SDS011;4011;49.424;10.894;2023-09-19T17:26:25;4.53;;;2.47;;
7931;SDS011;4011;49.424;10.894;2023-09-19T17:31:46;5.47;;;2.20;;
7931;SDS011;4011;49.424;10.894;2023-09-19T17:37:10;3.60;;;2.08;;
7931;SDS011;4011;49.424;10.894;2023-09-19T17:42:31;3.65;;;2.20;;
7931;SDS011;4011;49.424;10.894;2023-09-19T17:47:53;3.72;;;2.20;;
7931;SDS011;4011;49.424;10.894;2023-09-19T17:53:16;4.60;;;2.55;;
7931;SDS011;4011;49.424;10.894;2023-09-19T17:58:37;3.38;;;2.10;;
7931;SDS011;4011;49.424;10.894;2023-09-19T18:03:59;5.85;;;2.40;;
7931;SDS011;4011;49.424;10.894;2023-09-19T18:09:23;4.38;;;2.75;;
7931;SDS011;4011;49.424;10.894;2023-09-19T18:14:44;5.50;;;2.92;;
7931;SDS011;4011;49.424;10.894;2023-09-19T18:20:06;5.68;;;2.88;;
7931;SDS011;4011;49.424;10.894;2023-09-19T18:25:32;6.80;;;2.72;;
7931;SDS011;4011;49.424;10.894;2023-09-19T18:30:54;4.30;;;2.65;;
7931;SDS011;4011;49.424;10.894;2023-09-19T18:36:16;6.50;;;3.45;;
7931;SDS011;4011;49.424;10.894;2023-09-19T18:41:39;4.53;;;2.67;;
7931;SDS011;4011;49.424;10.894;2023-09-19T18:47:03;4.15;;;2.53;;
7931;SDS011;4011;49.424;10.894;2023-09-19T18:52:24;4.85;;;2.50;;
7931;SDS011;4011;49.424;10.894;2023-09-19T18:57:50;4.63;;;3.00;;
7931;SDS011;4011;49.424;10.894;2023-09-19T19:03:13;5.38;;;2.40;;
7931;SDS011;4011;49.424;10.894;2023-09-19T19:08:36;5.50;;;2.35;;
7931;SDS011;4011;49.424;10.894;2023-09-19T19:13:59;3.55;;;2.20;;
7931;SDS011;4011;49.424;10.894;2023-09-19T19:19:21;4.82;;;2.58;;
7931;SDS011;4011;49.424;10.894;2023-09-19T19:24:44;4.15;;;2.38;;
7931;SDS011;4011;49.424;10.894;2023-09-19T19:30:08;4.13;;;2.22;;
7931;SDS011;4011;49.424;10.894;2023-09-19T19:35:32;3.05;;;2.00;;
7931;SDS011;4011;49.424;10.894;2023-09-19T19:40:57;4.22;;;2.35;;
7931;SDS011;4011;49.424;10.894;2023-09-19T19:46:21;3.10;;;2.20;;
7931;SDS011;4011;49.424;10.894;2023-09-19T19:51:42;4.43;;;2.08;;
7931;SDS011;4011;49.424;10.894;2023-09-19T19:57:05;4.47;;;1.90;;
7931;SDS011;4011;49.424;10.894;2023-09-19T20:02:28;5.72;;;2.38;;
7931;SDS011;4011;49.424;10.894;2023-09-19T20:07:51;4.60;;;2.33;;
7931;SDS011;4011;49.424;10.894;2023-09-19T20:13:13;4.53;;;2.30;;
7931;SDS011;4011;49.424;10.894;2023-09-19T20:18:36;3.30;;;2.20;;
7931;SDS011;4011;49.424;10.894;2023-09-19T20:23:59;3.45;;;2.35;;
7931;SDS011;4011;49.424;10.894;2023-09-19T20:29:25;4.40;;;2.38;;
7931;SDS011;4011;49.424;10.894;2023-09-19T20:34:49;3.65;;;2.35;;
7931;SDS011;4011;49.424;10.894;2023-09-19T20:40:10;3.78;;;2.10;;
7931;SDS011;4011;49.424;10.894;2023-09-19T20:51:06;3.70;;;2.50;;
7931;SDS011;4011;49.424;10.894;2023-09-19T20:56:29;3.85;;;2.75;;
7931;SDS011;4011;49.424;10.894;2023-09-19T21:01:51;4.10;;;2.47;;
7931;SDS011;4011;49.424;10.894;2023-09-19T21:07:14;6.40;;;3.38;;
7931;SDS011;4011;49.424;10.894;2023-09-19T21:12:36;6.50;;;3.05;;
7931;SDS011;4011;49.424;10.894;2023-09-19T21:17:57;4.78;;;2.60;;
7931;SDS011;4011;49.424;10.894;2023-09-19T21:23:19;4.53;;;2.88;;
7931;SDS011;4011;49.424;10.894;2023-09-19T21:28:41;4.78;;;3.00;;
7931;SDS011;4011;49.424;10.894;2023-09-19T21:34:03;5.43;;;3.00;;
7931;SDS011;4011;49.424;10.894;2023-09-19T21:39:27;4.32;;;2.70;;
7931;SDS011;4011;49.424;10.894;2023-09-19T21:44:48;5.43;;;3.15;;
7931;SDS011;4011;49.424;10.894;2023-09-19T21:50:10;4.80;;;2.90;;
7931;SDS011;4011;49.424;10.894;2023-09-19T21:55:33;4.95;;;3.70;;
7931;SDS011;4011;49.424;10.894;2023-09-19T22:00:54;5.45;;;3.10;;
7931;SDS011;4011;49.424;10.894;2023-09-19T22:06:15;4.47;;;2.80;;
7931;SDS011;4011;49.424;10.894;2023-09-19T22:11:39;4.72;;;3.17;;
7931;SDS011;4011;49.424;10.894;2023-09-19T22:17:00;4.53;;;3.17;;
7931;SDS011;4011;49.424;10.894;2023-09-19T22:22:22;5.22;;;3.30;;
7931;SDS011;4011;49.424;10.894;2023-09-19T22:27:44;3.80;;;3.10;;
7931;SDS011;4011;49.424;10.894;2023-09-19T22:33:07;4.55;;;2.80;;
7931;SDS011;4011;49.424;10.894;2023-09-19T22:38:30;5.07;;;3.38;;
7931;SDS011;4011;49.424;10.894;2023-09-19T22:43:55;4.63;;;3.25;;
7931;SDS011;4011;49.424;10.894;2023-09-19T22:49:19;4.35;;;2.80;;
7931;SDS011;4011;49.424;10.894;2023-09-19T22:54:40;4.47;;;2.83;;
7931;SDS011;4011;49.424;10.894;2023-09-19T23:00:05;4.70;;;3.20;;
7931;SDS011;4011;49.424;10.894;2023-09-19T23:05:26;4.97;;;3.20;;
7931;SDS011;4011;49.424;10.894;2023-09-19T23:10:53;4.47;;;2.90;;
7931;SDS011;4011;49.424;10.894;2023-09-19T23:16:15;4.07;;;2.70;;
7931;SDS011;4011;49.424;10.894;2023-09-19T23:21:41;4.55;;;3.00;;
7931;SDS011;4011;49.424;10.894;2023-09-19T23:27:05;3.83;;;2.55;;
7931;SDS011;4011;49.424;10.894;2023-09-19T23:32:33;3.97;;;2.50;;
7931;SDS011;4011;49.424;10.894;2023-09-19T23:37:55;4.10;;;2.42;;
7931;SDS011;4011;49.424;10.894;2023-09-19T23:43:17;3.60;;;2.65;;
7931;SDS011;4011;49.424;10.894;2023-09-19T23:48:40;4.35;;;2.47;;
7931;SDS011;4011;49.424;10.894;2023-09-19T23:54:02;4.25;;;2.30;;
7931;SDS011;4011;49.424;10.894;2023-09-19T23:59:25;4.60;;;2.60;;
